createdAt,value
2022-08-11T00:00:22.290Z,2.67
2022-08-11T00:02:51.268Z,2.77
2022-08-11T00:05:20.016Z,2.63
2022-08-11T00:07:48.611Z,2.97
2022-08-11T00:10:17.231Z,2.60
2022-08-11T00:12:45.352Z,2.70
2022-08-11T00:15:13.271Z,2.60
2022-08-11T00:17:42.600Z,2.67
2022-08-11T00:20:16.201Z,2.50
2022-08-11T00:22:45.536Z,2.33
2022-08-11T00:25:14.258Z,2.57
2022-08-11T00:27:41.982Z,2.07
2022-08-11T00:30:10.406Z,2.40
2022-08-11T00:32:38.704Z,2.50
2022-08-11T00:35:55.938Z,2.50
2022-08-11T00:37:57.034Z,2.20
2022-08-11T00:40:26.751Z,2.33
2022-08-11T00:42:59.857Z,2.40
2022-08-11T00:45:28.633Z,2.10
2022-08-11T00:48:00.922Z,2.10
2022-08-11T00:50:35.469Z,2.23
2022-08-11T00:53:18.957Z,2.00
2022-08-11T00:56:10.561Z,2.40
2022-08-11T00:58:58.218Z,2.30
2022-08-11T01:01:32.264Z,2.20
2022-08-11T01:04:15.158Z,2.00
2022-08-11T01:07:16.518Z,2.23
2022-08-11T01:10:12.536Z,1.93
2022-08-11T01:12:46.309Z,2.17
2022-08-11T01:15:25.575Z,2.47
2022-08-11T01:18:13.745Z,2.17
2022-08-11T01:20:53.214Z,2.33
2022-08-11T01:23:36.712Z,2.13
2022-08-11T01:26:23.791Z,2.10
2022-08-11T01:29:09.703Z,2.47
2022-08-11T01:31:51.063Z,2.40
2022-08-11T01:34:33.371Z,2.20
2022-08-11T01:37:12.983Z,2.27
2022-08-11T01:39:56.582Z,2.20
2022-08-11T01:42:58.024Z,2.40
2022-08-11T01:45:31.474Z,2.10
2022-08-11T01:48:03.466Z,2.43
2022-08-11T01:50:40.830Z,2.27
2022-08-11T01:53:19.138Z,2.10
2022-08-11T01:59:16.246Z,2.40
2022-08-11T02:01:50.487Z,2.20
2022-08-11T02:04:24.126Z,2.30
2022-08-11T02:06:56.180Z,2.27
2022-08-11T02:09:33.782Z,2.10
2022-08-11T02:12:03.383Z,2.17
2022-08-11T02:14:35.186Z,2.40
2022-08-11T02:17:11.990Z,2.50
2022-08-11T02:20:01.581Z,2.30
2022-08-11T02:22:49.862Z,2.37
2022-08-11T02:25:24.055Z,2.30
2022-08-11T02:27:54.996Z,2.60
2022-08-11T02:30:25.363Z,2.00
2022-08-11T02:33:14.291Z,2.20
2022-08-11T02:35:45.693Z,2.20
2022-08-11T02:38:17.619Z,2.00
2022-08-11T02:40:49.965Z,2.13
2022-08-11T02:43:30.229Z,2.40
2022-08-11T02:46:06.701Z,2.57
2022-08-11T02:48:57.077Z,2.30
2022-08-11T02:51:26.975Z,2.30
2022-08-11T02:53:58.525Z,2.47
2022-08-11T02:56:38.465Z,2.30
2022-08-11T02:59:26.883Z,2.53
2022-08-11T03:02:05.256Z,2.10
2022-08-11T03:04:38.474Z,2.20
2022-08-11T03:07:28.304Z,2.20
2022-08-11T03:09:59.613Z,2.47
2022-08-11T03:12:53.437Z,2.10
2022-08-11T03:15:41.837Z,2.30
2022-08-11T03:18:17.073Z,2.33
2022-08-11T03:20:46.946Z,2.20
2022-08-11T03:23:19.763Z,2.40
2022-08-11T03:25:52.064Z,2.30
2022-08-11T03:28:28.403Z,1.97
2022-08-11T03:31:02.522Z,2.00
2022-08-11T03:33:49.215Z,2.20
2022-08-11T03:36:24.169Z,2.30
2022-08-11T03:39:02.226Z,2.70
2022-08-11T03:42:01.949Z,2.40
2022-08-11T03:44:43.843Z,2.50
2022-08-11T03:47:27.806Z,2.37
2022-08-11T03:50:04.578Z,2.17
2022-08-11T03:52:39.966Z,2.53
2022-08-11T03:55:11.357Z,2.47
2022-08-11T03:57:49.014Z,2.57
2022-08-11T04:00:37.445Z,2.80
2022-08-11T04:03:38.137Z,2.80
2022-08-11T04:06:27.918Z,2.57
2022-08-11T04:09:08.797Z,2.43
2022-08-11T04:11:51.134Z,2.53
2022-08-11T04:14:50.313Z,2.63
2022-08-11T04:17:31.130Z,2.60
2022-08-11T04:20:16.688Z,2.37
2022-08-11T04:23:09.505Z,2.50
2022-08-11T04:25:58.266Z,2.57
2022-08-11T04:28:50.244Z,2.57
2022-08-11T04:31:44.277Z,2.47
2022-08-11T04:34:33.385Z,2.87
2022-08-11T04:37:28.703Z,2.50
2022-08-11T04:40:11.435Z,2.33
2022-08-11T04:43:23.994Z,2.33
2022-08-11T04:46:07.356Z,2.40
2022-08-11T04:49:06.552Z,2.60
2022-08-11T04:52:02.376Z,2.57
2022-08-11T04:55:06.493Z,2.40
2022-08-11T04:57:59.918Z,2.60
2022-08-11T05:00:48.381Z,2.90
2022-08-11T05:03:34.060Z,2.93
2022-08-11T05:06:12.461Z,2.67
2022-08-11T05:08:51.862Z,3.10
2022-08-11T05:11:31.572Z,2.63
2022-08-11T05:14:36.579Z,2.90
2022-08-11T05:17:25.063Z,3.00
2022-08-11T05:20:10.082Z,2.80
2022-08-11T05:22:55.427Z,3.77
2022-08-11T05:26:44.213Z,3.30
2022-08-11T05:28:50.934Z,3.30
2022-08-11T05:31:39.254Z,3.30
2022-08-11T05:34:27.968Z,3.00
2022-08-11T05:37:06.800Z,3.17
2022-08-11T05:40:03.814Z,2.50
2022-08-11T05:42:49.993Z,3.20
2022-08-11T05:45:58.217Z,2.57
2022-08-11T05:48:48.531Z,2.67
2022-08-11T05:51:34.416Z,3.13
2022-08-11T05:54:29.304Z,2.80
2022-08-11T05:56:57.994Z,2.43
2022-08-11T05:59:27.140Z,2.23
2022-08-11T06:01:54.794Z,2.87
2022-08-11T06:04:24.189Z,2.83
2022-08-11T06:06:54.333Z,2.50
2022-08-11T06:09:24.496Z,2.63
2022-08-11T06:11:52.208Z,2.83
2022-08-11T06:14:20.210Z,2.40
2022-08-11T06:16:48.767Z,2.30
2022-08-11T06:19:17.090Z,2.77
2022-08-11T06:21:48.802Z,2.90
2022-08-11T06:24:16.732Z,2.50
2022-08-11T06:27:11.256Z,3.00
2022-08-11T06:29:47.988Z,2.77
2022-08-11T06:32:22.069Z,2.20
2022-08-11T06:34:56.665Z,2.47
2022-08-11T06:37:27.375Z,2.40
2022-08-11T06:40:04.133Z,2.50
2022-08-11T06:42:52.706Z,2.50
2022-08-11T06:45:27.418Z,2.40
2022-08-11T06:47:55.682Z,2.23
2022-08-11T06:50:41.979Z,2.20
2022-08-11T06:53:12.200Z,1.90
2022-08-11T06:55:59.491Z,1.57
2022-08-11T06:58:46.937Z,1.80
2022-08-11T07:01:16.721Z,1.60
2022-08-11T07:03:45.296Z,1.80
2022-08-11T07:06:50.268Z,1.80
2022-08-11T07:09:51.302Z,1.70
2022-08-11T07:12:56.272Z,1.80
2022-08-11T07:16:10.398Z,1.87
2022-08-11T07:18:50.585Z,1.60
2022-08-11T07:22:01.444Z,1.90
2022-08-11T07:25:02.348Z,1.90
2022-08-11T07:27:51.274Z,2.10
2022-08-11T07:30:18.831Z,1.70
2022-08-11T07:32:49.777Z,1.63
2022-08-11T07:35:18.247Z,1.73
2022-08-11T07:37:49.193Z,2.10
2022-08-11T07:40:30.328Z,1.60
2022-08-11T07:42:58.559Z,1.87
2022-08-11T07:45:45.060Z,2.00
2022-08-11T07:48:31.037Z,1.70
2022-08-11T07:51:16.369Z,1.83
2022-08-11T07:54:03.371Z,1.77
2022-08-11T07:57:07.260Z,1.80
2022-08-11T08:00:04.042Z,1.93
2022-08-11T08:02:46.253Z,1.60
2022-08-11T08:05:33.330Z,1.97
2022-08-11T08:08:18.540Z,1.90
2022-08-11T08:11:03.610Z,1.90
2022-08-11T08:13:50.940Z,1.50
2022-08-11T08:16:36.420Z,1.70
2022-08-11T08:19:04.094Z,2.03
2022-08-11T08:21:32.187Z,1.77
2022-08-11T08:23:59.755Z,1.80
2022-08-11T08:26:51.532Z,1.80
2022-08-11T08:29:44.197Z,1.60
2022-08-11T08:32:12.138Z,1.83
2022-08-11T08:34:40.781Z,1.80
2022-08-11T08:37:15.871Z,1.70
2022-08-11T08:39:56.283Z,2.37
2022-08-11T08:42:25.565Z,1.93
2022-08-11T08:44:59.049Z,1.47
2022-08-11T08:47:42.862Z,1.97
2022-08-11T08:50:16.721Z,1.60
2022-08-11T08:52:48.703Z,1.73
2022-08-11T08:55:18.997Z,2.00
2022-08-11T08:57:47.445Z,1.83
2022-08-11T09:00:20.730Z,1.57
2022-08-11T09:02:50.513Z,3.60
2022-08-11T09:05:18.470Z,1.97
2022-08-11T09:07:47.481Z,2.20
2022-08-11T09:10:17.405Z,2.10
2022-08-11T09:12:44.863Z,2.10
2022-08-11T09:15:14.041Z,3.20
2022-08-11T09:17:45.658Z,2.30
2022-08-11T09:20:13.885Z,2.33
2022-08-11T09:23:35.154Z,1.93
2022-08-11T09:26:05.226Z,2.53
2022-08-11T09:28:33.142Z,2.30
2022-08-11T09:31:02.290Z,2.20
2022-08-11T09:33:31.422Z,2.50
2022-08-11T09:36:19.164Z,2.03
2022-08-11T09:39:04.419Z,1.70
2022-08-11T09:42:01.322Z,2.30
2022-08-11T09:44:38.506Z,2.00
2022-08-11T09:47:15.452Z,2.20
2022-08-11T09:49:45.217Z,2.40
2022-08-11T09:52:14.291Z,1.90
2022-08-11T09:54:42.121Z,2.03
2022-08-11T09:57:33.101Z,2.30
2022-08-11T10:00:12.930Z,1.70
2022-08-11T10:02:42.527Z,1.90
2022-08-11T10:05:30.385Z,1.83
2022-08-11T10:07:58.050Z,1.90
2022-08-11T10:10:25.761Z,1.90
2022-08-11T10:13:43.969Z,1.53
2022-08-11T10:15:59.684Z,1.70
2022-08-11T10:18:52.219Z,1.60
2022-08-11T10:21:28.460Z,1.87
2022-08-11T10:24:14.507Z,1.90
2022-08-11T10:26:55.306Z,1.60
2022-08-11T10:29:44.580Z,1.93
2022-08-11T10:32:40.039Z,1.53
2022-08-11T10:35:26.220Z,1.60
2022-08-11T10:38:07.517Z,1.90
2022-08-11T10:40:38.152Z,1.50
2022-08-11T10:43:07.091Z,1.83
2022-08-11T10:45:53.486Z,1.50
2022-08-11T10:48:22.110Z,1.60
2022-08-11T10:51:10.628Z,1.70
2022-08-11T10:53:58.530Z,1.80
2022-08-11T10:56:46.215Z,1.50
2022-08-11T10:59:14.073Z,1.60
2022-08-11T11:01:45.110Z,1.97
2022-08-11T11:04:14.424Z,1.60
2022-08-11T11:06:47.550Z,1.77
2022-08-11T11:09:18.692Z,1.50
2022-08-11T11:12:06.364Z,1.53
2022-08-11T11:14:58.738Z,1.47
2022-08-11T11:17:46.202Z,1.50
2022-08-11T11:20:36.490Z,1.40
2022-08-11T11:23:05.693Z,1.60
2022-08-11T11:26:05.537Z,1.17
2022-08-11T11:28:39.312Z,1.40
2022-08-11T11:31:15.790Z,2.00
2022-08-11T11:33:57.445Z,1.60
2022-08-11T11:36:44.932Z,1.57
2022-08-11T11:39:12.904Z,1.63
2022-08-11T11:41:42.835Z,1.60
2022-08-11T11:44:12.609Z,2.07
2022-08-11T11:46:40.786Z,1.50
2022-08-11T11:49:17.221Z,1.30
2022-08-11T11:51:45.587Z,1.40
2022-08-11T11:54:18.103Z,1.10
2022-08-11T11:56:47.027Z,1.17
2022-08-11T11:59:32.977Z,1.50
2022-08-11T12:02:00.780Z,1.30
2022-08-11T12:04:40.796Z,1.40
2022-08-11T12:07:28.298Z,1.10
2022-08-11T12:09:56.453Z,1.17
2022-08-11T12:12:43.286Z,1.13
2022-08-11T12:15:11.050Z,1.30
2022-08-11T12:17:38.846Z,1.10
2022-08-11T12:20:31.528Z,1.20
2022-08-11T12:23:14.767Z,1.03
2022-08-11T12:26:23.707Z,1.17
2022-08-11T12:28:50.586Z,1.00
2022-08-11T12:31:22.032Z,1.00
2022-08-11T12:33:50.378Z,1.07
2022-08-11T12:36:18.298Z,1.00
2022-08-11T12:38:51.204Z,0.90
2022-08-11T12:41:37.456Z,0.87
2022-08-11T12:44:36.419Z,1.07
2022-08-11T12:47:04.707Z,1.00
2022-08-11T12:49:53.614Z,1.33
2022-08-11T12:52:23.450Z,1.00
2022-08-11T12:54:57.033Z,1.20
2022-08-11T12:57:44.487Z,1.07
2022-08-11T13:00:31.735Z,0.97
2022-08-11T13:03:17.574Z,0.80
2022-08-11T13:05:46.496Z,0.80
2022-08-11T13:08:15.178Z,0.97
2022-08-11T13:11:00.751Z,0.80
2022-08-11T13:13:52.439Z,1.00
2022-08-11T13:16:17.908Z,1.00
2022-08-11T13:18:46.119Z,1.00
2022-08-11T13:21:20.598Z,1.03
2022-08-11T13:24:00.538Z,0.90
2022-08-11T13:26:36.931Z,0.90
2022-08-11T13:29:15.522Z,0.80
2022-08-11T13:31:44.441Z,0.90
2022-08-11T13:34:12.240Z,0.97
2022-08-11T13:36:40.776Z,0.97
2022-08-11T13:39:09.467Z,1.00
2022-08-11T13:41:41.092Z,1.03
2022-08-11T13:44:10.033Z,0.90
2022-08-11T13:46:37.777Z,0.90
2022-08-11T13:49:09.162Z,1.10
2022-08-11T13:51:37.429Z,1.10
2022-08-11T13:54:06.528Z,1.10
2022-08-11T13:56:34.816Z,0.90
2022-08-11T13:59:02.799Z,0.97
2022-08-11T14:02:21.415Z,1.03
2022-08-11T14:04:30.806Z,0.93
2022-08-11T14:07:00.730Z,0.90
2022-08-11T14:09:29.277Z,1.00
2022-08-11T14:12:21.920Z,1.40
2022-08-11T14:14:55.221Z,1.00
2022-08-11T14:17:38.298Z,1.10
2022-08-11T14:20:38.411Z,1.00
2022-08-11T14:23:01.521Z,0.90
2022-08-11T14:25:59.721Z,1.10
2022-08-11T14:28:30.943Z,1.00
2022-08-11T14:31:01.968Z,0.83
2022-08-11T14:33:58.094Z,1.20
2022-08-11T14:36:18.975Z,1.20
2022-08-11T14:38:46.409Z,1.60
2022-08-11T14:41:31.594Z,1.10
2022-08-11T14:44:16.863Z,1.10
2022-08-11T14:47:02.543Z,1.00
2022-08-11T14:49:30.343Z,1.10
2022-08-11T14:51:59.496Z,1.07
2022-08-11T14:54:45.109Z,1.10
2022-08-11T14:57:12.659Z,1.17
2022-08-11T14:59:40.479Z,1.30
2022-08-11T15:02:25.377Z,1.53
2022-08-11T15:04:53.043Z,1.20
2022-08-11T15:07:29.416Z,1.13
2022-08-11T15:10:14.217Z,1.60
2022-08-11T15:12:42.923Z,1.33
2022-08-11T15:15:28.746Z,1.83
2022-08-11T15:17:58.061Z,1.87
2022-08-11T15:20:56.026Z,1.70
2022-08-11T15:23:42.615Z,1.52
2022-08-11T15:26:12.385Z,1.95
2022-08-11T15:29:01.217Z,1.33
2022-08-11T15:31:49.496Z,1.50
2022-08-11T15:34:35.997Z,1.67
2022-08-11T15:37:24.008Z,1.52
2022-08-11T15:40:31.753Z,1.52
2022-08-11T15:43:16.993Z,2.40
2022-08-11T15:45:49.174Z,1.23
2022-08-11T15:48:19.181Z,1.50
2022-08-11T15:50:49.409Z,1.47
2022-08-11T15:53:19.301Z,1.20
2022-08-11T15:55:48.399Z,1.20
2022-08-11T15:58:35.610Z,1.17
2022-08-11T16:01:21.854Z,1.10
2022-08-11T16:04:09.783Z,1.23
2022-08-11T16:06:44.843Z,1.20
2022-08-11T16:09:19.430Z,1.30
2022-08-11T16:11:49.102Z,1.60
2022-08-11T16:14:35.108Z,1.80
2022-08-11T16:17:03.883Z,1.50
2022-08-11T16:19:36.016Z,1.30
2022-08-11T16:22:05.674Z,1.40
2022-08-11T16:27:03.734Z,1.30
2022-08-11T16:27:24.503Z,1.30
2022-08-11T16:29:52.629Z,1.40
2022-08-11T16:32:23.226Z,1.20
2022-08-11T16:35:11.607Z,1.10
2022-08-11T16:37:57.288Z,1.57
2022-08-11T16:40:25.070Z,1.37
2022-08-11T16:43:13.052Z,1.17
2022-08-11T16:45:59.613Z,1.23
2022-08-11T16:48:35.868Z,1.63
2022-08-11T16:51:05.487Z,1.10
2022-08-11T16:53:47.370Z,1.17
2022-08-11T16:56:21.520Z,1.10
2022-08-11T16:59:16.552Z,1.10
2022-08-11T17:01:46.913Z,1.20
2022-08-11T17:04:38.785Z,1.13
2022-08-11T17:07:40.253Z,1.40
2022-08-11T17:10:50.918Z,1.33
2022-08-11T17:13:21.578Z,1.40
2022-08-11T17:16:11.823Z,1.20
2022-08-11T17:18:44.154Z,1.37
2022-08-11T17:21:19.531Z,1.37
2022-08-11T17:23:50.176Z,1.20
2022-08-11T17:26:18.950Z,1.30
2022-08-11T17:28:49.741Z,1.40
2022-08-11T17:31:37.186Z,1.40
2022-08-11T17:34:23.526Z,1.20
2022-08-11T17:36:51.448Z,0.90
2022-08-11T17:39:19.837Z,1.20
2022-08-11T17:42:05.434Z,0.90
2022-08-11T17:44:51.796Z,1.00
2022-08-11T17:47:38.766Z,1.00
2022-08-11T17:50:17.411Z,1.17
2022-08-11T17:53:04.112Z,1.23
2022-08-11T17:55:51.830Z,0.90
2022-08-11T17:58:39.300Z,1.50
2022-08-11T18:01:09.627Z,1.10
2022-08-11T18:03:39.892Z,1.13
2022-08-11T18:06:12.915Z,1.07
2022-08-11T18:08:59.398Z,1.13
2022-08-11T18:12:06.592Z,1.10
2022-08-11T18:14:50.663Z,1.10
2022-08-11T18:17:36.019Z,1.30
2022-08-11T18:20:23.207Z,0.93
2022-08-11T18:23:08.896Z,0.90
2022-08-11T18:25:57.363Z,1.10
2022-08-11T18:28:43.728Z,1.13
2022-08-11T18:31:30.462Z,1.23
2022-08-11T18:34:18.739Z,1.27
2022-08-11T18:37:24.726Z,0.97
2022-08-11T18:40:15.558Z,9.80
2022-08-11T18:43:02.452Z,27.23
2022-08-11T18:45:47.598Z,16.03
2022-08-11T18:48:40.422Z,12.73
2022-08-11T18:51:30.560Z,9.93
2022-08-11T18:54:19.339Z,7.20
2022-08-11T18:57:04.762Z,6.23
2022-08-11T18:59:51.030Z,4.33
2022-08-11T19:02:48.419Z,3.50
2022-08-11T19:06:35.247Z,3.30
2022-08-11T19:08:42.019Z,2.77
2022-08-11T19:11:29.153Z,2.50
2022-08-11T19:14:15.258Z,1.67
2022-08-11T19:17:01.477Z,1.53
2022-08-11T19:19:47.832Z,1.20
2022-08-11T19:22:35.431Z,1.03
2022-08-11T19:25:25.283Z,1.27
2022-08-11T19:28:13.347Z,1.10
2022-08-11T19:30:59.315Z,1.10
2022-08-11T19:34:00.086Z,1.30
2022-08-11T19:36:47.705Z,1.50
2022-08-11T19:39:33.338Z,1.20
2022-08-11T19:42:18.937Z,1.10
2022-08-11T19:45:05.487Z,1.00
2022-08-11T19:48:03.175Z,0.97
2022-08-11T19:50:57.002Z,1.10
2022-08-11T19:53:43.741Z,1.03
2022-08-11T19:56:29.491Z,1.10
2022-08-11T19:59:14.715Z,1.20
2022-08-11T20:02:13.725Z,1.20
2022-08-11T20:04:59.760Z,1.10
2022-08-11T20:07:45.831Z,1.10
2022-08-11T20:10:32.967Z,1.27
2022-08-11T20:13:21.711Z,1.13
2022-08-11T20:16:06.915Z,1.10
2022-08-11T20:18:54.090Z,1.20
2022-08-11T20:21:39.803Z,1.10
2022-08-11T20:24:25.519Z,1.17
2022-08-11T20:27:18.784Z,1.10
2022-08-11T20:30:10.571Z,1.60
2022-08-11T20:32:56.370Z,1.07
2022-08-11T20:35:43.933Z,1.10
2022-08-11T20:38:30.314Z,1.47
2022-08-11T20:41:16.244Z,1.33
2022-08-11T20:44:07.948Z,1.20
2022-08-11T20:46:54.943Z,1.17
2022-08-11T20:49:51.423Z,1.00
2022-08-11T20:52:44.107Z,1.00
2022-08-11T20:55:52.061Z,1.00
2022-08-11T20:59:13.310Z,1.10
2022-08-11T21:01:44.375Z,0.87
2022-08-11T21:04:29.833Z,1.17
2022-08-11T21:07:23.564Z,1.10
2022-08-11T21:10:24.055Z,1.37
2022-08-11T21:13:24.146Z,1.20
2022-08-11T21:16:15.929Z,1.27
2022-08-11T21:19:13.859Z,0.80
2022-08-11T21:22:00.118Z,1.43
2022-08-11T21:24:47.087Z,1.20
2022-08-11T21:27:35.711Z,1.20
2022-08-11T21:30:21.565Z,1.30
2022-08-11T21:33:07.254Z,1.13
2022-08-11T21:35:52.391Z,1.30
2022-08-11T21:38:37.692Z,1.20
2022-08-11T21:41:24.082Z,1.10
2022-08-11T21:44:10.772Z,1.13
2022-08-11T21:46:57.094Z,1.10
2022-08-11T21:49:43.725Z,1.17
2022-08-11T21:52:29.063Z,1.30
2022-08-11T21:55:15.358Z,1.47
2022-08-11T21:58:01.971Z,1.20
2022-08-11T22:00:48.674Z,1.47
2022-08-11T22:03:41.090Z,1.20
2022-08-11T22:06:35.398Z,1.30
2022-08-11T22:09:21.002Z,1.43
2022-08-11T22:12:34.110Z,1.00
2022-08-11T22:15:11.220Z,1.40
2022-08-11T22:17:58.124Z,1.17
2022-08-11T22:20:44.952Z,1.20
2022-08-11T22:23:36.077Z,1.53
2022-08-11T22:26:22.149Z,1.07
2022-08-11T22:29:07.964Z,1.10
2022-08-11T22:31:53.922Z,1.30
2022-08-11T22:34:40.641Z,1.20
2022-08-11T22:37:38.895Z,1.43
2022-08-11T22:40:24.534Z,1.30
2022-08-11T22:43:09.463Z,1.27
2022-08-11T22:45:54.696Z,1.13
2022-08-11T22:48:40.374Z,1.17
2022-08-11T22:51:27.062Z,1.40
2022-08-11T22:54:12.928Z,1.60
2022-08-11T22:56:58.076Z,1.30
2022-08-11T22:59:42.939Z,1.40
2022-08-11T23:02:28.818Z,1.20
2022-08-11T23:05:13.990Z,1.20
2022-08-11T23:08:00.338Z,1.30
2022-08-11T23:10:45.994Z,1.40
2022-08-11T23:13:31.895Z,1.30
2022-08-11T23:16:17.396Z,1.10
2022-08-11T23:19:03.132Z,1.40
2022-08-11T23:21:49.943Z,1.30
2022-08-11T23:24:37.061Z,1.30
2022-08-11T23:27:23.250Z,1.40
2022-08-11T23:30:09.359Z,1.30
2022-08-11T23:32:54.942Z,1.40
2022-08-11T23:35:54.887Z,1.20
2022-08-11T23:38:43.557Z,1.40
2022-08-11T23:41:33.465Z,1.57
2022-08-11T23:44:19.479Z,1.50
2022-08-11T23:47:04.911Z,1.20
2022-08-11T23:49:50.558Z,1.10
2022-08-11T23:52:36.153Z,1.23
2022-08-11T23:55:21.500Z,1.27
2022-08-11T23:58:08.143Z,1.40
